Time;durP1;ratioP1;P1;durP2;ratioP2;P2;SDS_P1;SDS_P2;PMS_P1;PMS_P2;Temp;Humidity;BMP_temperature;BMP_pressure;BME280_temperature;BME280_humidity;BME280_pressure;Samples;Min_cycle;Max_cycle;Signal;HPM_P1;HPM_P2
2022/01/14 00:00:39;;;;;;;76.22;31.67;;;5.70;99.90;;;;;;5090314;28;20120;-54
2022/01/14 00:03:05;;;;;;;75.95;31.95;;;6.20;99.90;;;;;;5090065;28;20044;-56
2022/01/14 00:05:31;;;;;;;76.90;33.10;;;6.10;99.90;;;;;;5093551;28;20056;-56
2022/01/14 00:07:56;;;;;;;69.75;31.02;;;5.50;99.90;;;;;;5094157;28;20430;-55
2022/01/14 00:10:27;;;;;;;76.35;33.40;;;6.10;99.90;;;;;;5094112;28;20206;-55
2022/01/14 00:12:57;;;;;;;75.05;35.58;;;5.70;99.90;;;;;;5092871;28;20058;-54
2022/01/14 00:15:24;;;;;;;66.35;35.00;;;5.50;99.90;;;;;;5094084;28;20086;-55
2022/01/14 00:17:51;;;;;;;70.13;33.75;;;4.80;99.90;;;;;;5092559;28;20089;-55
2022/01/14 00:20:18;;;;;;;70.60;30.98;;;5.80;99.90;;;;;;5093896;28;20119;-53
2022/01/14 00:22:44;;;;;;;74.60;34.78;;;5.50;99.90;;;;;;5093572;28;20048;-54
2022/01/14 00:33:10;;;;;;;79.60;35.53;;;5.70;99.90;;;;;;5093504;28;20397;-55
2022/01/14 00:35:44;;;;;;;80.53;34.78;;;5.90;99.90;;;;;;5093316;28;20119;-55
2022/01/14 00:38:11;;;;;;;75.47;33.72;;;6.20;99.90;;;;;;5090909;28;20572;-55
2022/01/14 00:40:37;;;;;;;77.25;30.83;;;5.70;99.90;;;;;;5091927;28;20052;-54
2022/01/14 00:43:04;;;;;;;78.47;34.25;;;5.70;99.90;;;;;;5092248;28;20044;-55
2022/01/14 00:45:30;;;;;;;82.85;33.90;;;5.90;99.90;;;;;;5093249;28;20472;-55
2022/01/14 00:47:56;;;;;;;78.80;30.35;;;6.80;99.90;;;;;;5093977;28;20055;-55
2022/01/14 00:50:22;;;;;;;73.72;33.60;;;5.60;99.90;;;;;;5091969;28;20051;-55
2022/01/14 00:52:48;;;;;;;71.40;29.50;;;5.60;99.90;;;;;;5092942;28;20050;-56
2022/01/14 00:55:18;;;;;;;72.40;32.10;;;5.50;99.90;;;;;;5092925;28;20040;-54
2022/01/14 01:00:31;;;;;;;69.40;31.40;;;5.60;99.90;;;;;;5092077;28;20131;-54
2022/01/14 01:02:56;;;;;;;65.22;31.35;;;5.40;99.90;;;;;;5093022;28;20047;-55
2022/01/14 01:05:23;;;;;;;74.05;33.78;;;5.60;99.90;;;;;;5091321;28;20056;-54
2022/01/14 01:08:00;;;;;;;61.67;29.33;;;5.60;99.90;;;;;;5092767;28;20100;-55
2022/01/14 01:10:26;;;;;;;64.35;32.70;;;5.50;99.90;;;;;;5093007;28;20048;-55
2022/01/14 01:13:00;;;;;;;64.82;29.80;;;5.60;99.90;;;;;;5092555;28;20137;-55
2022/01/14 01:15:26;;;;;;;61.30;30.15;;;5.50;99.90;;;;;;5090001;28;20059;-55
2022/01/14 01:17:51;;;;;;;71.82;34.60;;;5.50;99.90;;;;;;5090867;28;20044;-55
2022/01/14 01:20:18;;;;;;;61.85;32.03;;;5.40;99.90;;;;;;5092690;28;20157;-55
2022/01/14 01:22:49;;;;;;;65.60;32.53;;;5.60;99.90;;;;;;5091084;28;20043;-55
2022/01/14 01:25:20;;;;;;;55.72;28.92;;;5.60;99.90;;;;;;5092377;28;20040;-55
2022/01/14 01:27:48;;;;;;;63.70;29.80;;;5.60;99.90;;;;;;5092440;28;20043;-55
2022/01/14 01:30:15;;;;;;;61.55;31.17;;;5.50;99.90;;;;;;5092495;28;20079;-55
2022/01/14 01:32:47;;;;;;;63.00;30.55;;;5.30;99.90;;;;;;5092320;28;20044;-54
2022/01/14 01:35:16;;;;;;;59.67;29.50;;;5.40;99.90;;;;;;5090910;28;20102;-53
2022/01/14 01:37:42;;;;;;;66.35;30.73;;;5.50;99.90;;;;;;5089836;28;20417;-55
2022/01/14 01:40:09;;;;;;;57.15;31.80;;;5.70;99.90;;;;;;5092184;28;20112;-55
2022/01/14 01:42:36;;;;;;;58.58;28.30;;;5.30;99.90;;;;;;5090724;28;20390;-55
2022/01/14 01:45:09;;;;;;;60.22;30.02;;;5.40;99.90;;;;;;5091865;28;20036;-55
2022/01/14 01:47:34;;;;;;;53.28;28.50;;;5.30;99.90;;;;;;5092531;28;20044;-56
2022/01/14 01:50:11;;;;;;;56.45;28.23;;;5.10;99.90;;;;;;5091706;28;20044;-55
2022/01/14 01:52:37;;;;;;;59.08;29.73;;;5.20;99.90;;;;;;5091869;28;20044;-54
2022/01/14 01:55:04;;;;;;;67.88;31.58;;;5.20;99.90;;;;;;5090536;28;20044;-55
2022/01/14 01:57:30;;;;;;;72.05;31.90;;;5.20;99.90;;;;;;5091608;28;20036;-55
2022/01/14 01:59:56;;;;;;;60.97;30.55;;;5.50;99.90;;;;;;5090120;28;20058;-54
2022/01/14 02:02:21;;;;;;;62.33;31.13;;;5.20;99.90;;;;;;5090285;28;20119;-55
2022/01/14 02:04:47;;;;;;;69.65;29.45;;;5.20;99.90;;;;;;5091354;28;20043;-55
2022/01/14 02:07:13;;;;;;;67.97;30.33;;;5.20;99.90;;;;;;5091722;28;20158;-55
2022/01/14 02:09:39;;;;;;;63.25;31.40;;;5.40;99.90;;;;;;5091573;28;20401;-55
2022/01/14 02:12:09;;;;;;;66.20;32.20;;;5.40;99.90;;;;;;5091332;28;20040;-54
2022/01/14 02:22:08;;;;;;;73.78;35.30;;;5.20;99.90;;;;;;5091551;28;20050;-56
2022/01/14 02:22:53;;;;;;;75.68;35.45;;;5.30;99.90;;;;;;5091198;28;20047;-56
2022/01/14 02:25:30;;;;;;;73.15;34.13;;;5.60;99.90;;;;;;5091627;28;20040;-55
2022/01/14 02:28:08;;;;;;;84.13;33.00;;;5.30;99.90;;;;;;5090925;28;20054;-55
2022/01/14 02:30:39;;;;;;;64.50;33.72;;;5.20;99.90;;;;;;5091239;28;20051;-55
2022/01/14 02:33:05;;;;;;;67.35;32.28;;;5.90;99.90;;;;;;5089593;28;20114;-55
2022/01/14 02:35:31;;;;;;;72.20;32.38;;;5.60;99.90;;;;;;5091038;28;20063;-56
2022/01/14 02:37:57;;;;;;;60.88;31.02;;;5.50;99.90;;;;;;5088285;28;20083;-54
2022/01/14 02:40:23;;;;;;;67.22;32.85;;;6.20;99.90;;;;;;5089506;28;20066;-55
2022/01/14 02:42:49;;;;;;;69.40;32.45;;;5.40;99.90;;;;;;5089229;28;20150;-55
2022/01/14 02:45:17;;;;;;;68.10;32.05;;;5.60;99.90;;;;;;5090870;28;20126;-55
2022/01/14 02:47:44;;;;;;;68.70;31.15;;;5.50;99.90;;;;;;5089448;28;20174;-55
2022/01/14 02:50:18;;;;;;;67.18;32.40;;;5.40;99.90;;;;;;5090408;28;20535;-55
2022/01/14 02:55:27;;;;;;;67.40;31.50;;;5.50;99.90;;;;;;5090862;28;20048;-55
2022/01/14 02:57:54;;;;;;;69.65;31.48;;;5.70;99.90;;;;;;5089020;28;20082;-55
2022/01/14 03:00:28;;;;;;;75.80;32.78;;;6.20;99.90;;;;;;5090642;28;20051;-54
2022/01/14 03:02:56;;;;;;;72.30;33.40;;;6.20;99.90;;;;;;5090374;28;20039;-56
2022/01/14 03:05:22;;;;;;;70.30;31.38;;;6.30;99.90;;;;;;5090432;28;20123;-56
2022/01/14 03:07:49;;;;;;;73.72;34.67;;;5.60;99.90;;;;;;5090520;28;20130;-55
2022/01/14 03:10:15;;;;;;;73.80;34.03;;;5.60;99.90;;;;;;5090240;28;20036;-54
2022/01/14 03:12:43;;;;;;;68.82;33.20;;;5.50;99.90;;;;;;5090915;28;20047;-55
2022/01/14 03:15:10;;;;;;;74.15;35.95;;;5.60;99.90;;;;;;5090406;28;20048;-56
2022/01/14 03:17:37;;;;;;;66.65;31.63;;;5.40;99.90;;;;;;5090317;28;20052;-56
2022/01/14 03:20:05;;;;;;;81.50;34.67;;;5.70;99.90;;;;;;5090244;28;20135;-56
2022/01/14 03:22:36;;;;;;;79.85;36.20;;;5.40;99.90;;;;;;5089146;28;20114;-56
2022/01/14 03:27:52;;;;;;;75.90;34.03;;;5.40;99.90;;;;;;5090400;28;20055;-56
2022/01/14 03:30:18;;;;;;;73.00;33.30;;;5.50;99.90;;;;;;5090597;28;20032;-55
2022/01/14 03:32:44;;;;;;;73.22;33.47;;;5.80;99.90;;;;;;5090308;28;20101;-56
2022/01/14 03:35:12;;;;;;;83.85;34.97;;;5.50;99.90;;;;;;5090076;28;20040;-56
2022/01/14 03:37:39;;;;;;;79.75;35.28;;;5.40;99.90;;;;;;5088311;28;20517;-56
2022/01/14 03:40:06;;;;;;;73.82;33.35;;;5.80;99.90;;;;;;5092838;28;20040;-56
2022/01/14 03:42:32;;;;;;;72.70;34.42;;;5.40;99.90;;;;;;5094292;28;20379;-55
2022/01/14 03:44:58;;;;;;;76.57;37.65;;;5.80;99.90;;;;;;5094659;28;20474;-56
2022/01/14 03:47:24;;;;;;;82.80;34.97;;;5.90;99.90;;;;;;5092862;28;20066;-56
2022/01/14 03:49:49;;;;;;;79.93;35.55;;;5.60;99.90;;;;;;5094408;28;20048;-56
2022/01/14 03:52:16;;;;;;;78.10;35.00;;;6.00;99.90;;;;;;5094081;28;20039;-55
2022/01/14 03:54:42;;;;;;;79.03;33.85;;;5.90;99.90;;;;;;5092830;28;20056;-55
2022/01/14 03:57:08;;;;;;;72.93;33.45;;;5.70;99.90;;;;;;5093921;28;20040;-55
2022/01/14 03:59:34;;;;;;;76.00;34.05;;;5.70;99.90;;;;;;5094246;28;20052;-55
2022/01/14 04:01:59;;;;;;;71.55;34.40;;;5.90;99.90;;;;;;5092417;28;20123;-55
2022/01/14 04:04:25;;;;;;;81.90;37.53;;;6.60;99.90;;;;;;5094019;28;20036;-55
2022/01/14 04:06:51;;;;;;;77.50;35.03;;;5.70;99.90;;;;;;5093770;28;20070;-56
2022/01/14 04:09:17;;;;;;;85.55;37.65;;;5.70;99.90;;;;;;5093773;28;20131;-55
2022/01/14 04:11:44;;;;;;;76.88;32.38;;;6.50;99.90;;;;;;5094162;28;20559;-55
2022/01/14 04:16:51;;;;;;;79.85;36.13;;;5.70;99.90;;;;;;5093982;28;20076;-56
2022/01/14 04:19:17;;;;;;;73.82;35.70;;;5.90;99.90;;;;;;5093351;28;20393;-54
2022/01/14 04:21:43;;;;;;;71.65;37.22;;;5.80;99.90;;;;;;5093804;28;20044;-56
2022/01/14 04:24:09;;;;;;;68.50;34.80;;;5.70;99.90;;;;;;5093219;28;20066;-56
2022/01/14 04:26:35;;;;;;;71.93;32.72;;;5.90;99.90;;;;;;5093926;28;20132;-56
2022/01/14 04:29:00;;;;;;;72.22;34.00;;;6.40;99.90;;;;;;5075172;28;20040;-56
2022/01/14 04:31:26;;;;;;;67.85;33.42;;;6.60;99.90;;;;;;5093339;28;20056;-55
2022/01/14 04:33:52;;;;;;;67.00;33.58;;;5.80;99.90;;;;;;5093608;28;20046;-55
2022/01/14 04:36:18;;;;;;;73.90;35.50;;;5.80;99.90;;;;;;5093108;28;20551;-55
2022/01/14 04:38:43;;;;;;;66.15;34.25;;;6.00;99.90;;;;;;5090690;28;20058;-55
2022/01/14 04:41:09;;;;;;;72.72;34.80;;;5.60;99.90;;;;;;5091675;28;20497;-55
2022/01/14 04:43:36;;;;;;;71.18;34.55;;;6.00;99.90;;;;;;5093285;28;20039;-56
2022/01/14 04:46:34;;;;;;;61.45;30.63;;;5.70;99.90;;;;;;5093492;28;20448;-56
2022/01/14 04:48:48;;;;;;;56.58;30.35;;;6.50;99.90;;;;;;5091970;28;20048;-56
2022/01/14 04:51:13;;;;;;;59.08;31.38;;;5.90;99.90;;;;;;5092670;28;20409;-56
2022/01/14 04:53:39;;;;;;;69.97;32.50;;;5.80;99.90;;;;;;5080870;28;20044;-48
2022/01/14 04:56:05;;;;;;;64.70;33.08;;;5.90;99.90;;;;;;5069864;28;20032;-51
2022/01/14 04:58:31;;;;;;;60.22;31.27;;;6.20;99.90;;;;;;5068012;28;20048;-48
2022/01/14 05:00:57;;;;;;;69.80;34.95;;;5.90;99.90;;;;;;5074413;28;20040;-46
2022/01/14 05:03:23;;;;;;;80.35;35.53;;;5.80;99.90;;;;;;5072650;28;20024;-47
2022/01/14 05:05:52;;;;;;;68.07;33.33;;;5.80;99.90;;;;;;5072290;28;20402;-54
2022/01/14 05:08:27;;;;;;;66.60;35.67;;;5.60;99.90;;;;;;5073116;28;20056;-48
2022/01/14 05:13:20;;;;;;;65.88;34.47;;;5.60;99.90;;;;;;5073120;28;20051;-45
2022/01/14 05:15:45;;;;;;;78.60;37.78;;;5.60;99.90;;;;;;5073578;28;20512;-43
2022/01/14 05:18:11;;;;;;;85.15;40.55;;;5.60;99.90;;;;;;5072525;28;20044;-45
2022/01/14 05:20:37;;;;;;;89.18;41.17;;;6.20;99.90;;;;;;5082151;28;20070;-44
2022/01/14 05:23:03;;;;;;;76.03;36.80;;;5.40;99.90;;;;;;5073735;28;20035;-41
2022/01/14 05:25:29;;;;;;;69.47;36.50;;;5.60;99.90;;;;;;5074430;28;20029;-39
2022/01/14 05:27:54;;;;;;;73.50;35.25;;;5.20;99.90;;;;;;5073596;28;20045;-50
2022/01/14 05:30:20;;;;;;;79.97;37.95;;;5.60;99.90;;;;;;5071441;28;20063;-52
2022/01/14 05:32:49;;;;;;;83.68;36.58;;;5.40;99.90;;;;;;5071882;28;20453;-53
2022/01/14 05:35:20;;;;;;;75.43;37.78;;;5.40;99.90;;;;;;5071192;28;20502;-53
2022/01/14 05:37:46;;;;;;;67.13;36.55;;;5.80;99.90;;;;;;5075227;28;20048;-53
2022/01/14 05:40:13;;;;;;;68.95;37.53;;;5.70;99.90;;;;;;5092766;28;20359;-53
2022/01/14 05:42:39;;;;;;;78.95;38.08;;;5.30;99.90;;;;;;5091594;28;20059;-54
2022/01/14 05:45:07;;;;;;;62.53;36.05;;;5.30;99.90;;;;;;5092885;28;20048;-54
2022/01/14 05:47:34;;;;;;;68.47;36.78;;;5.30;99.90;;;;;;5091165;28;20066;-54
2022/01/14 05:50:00;;;;;;;75.45;40.33;;;5.60;99.90;;;;;;5092488;28;20047;-52
2022/01/14 05:52:26;;;;;;;72.55;35.95;;;5.60;99.90;;;;;;5092263;28;20032;-53
2022/01/14 05:54:53;;;;;;;82.90;38.50;;;5.80;99.90;;;;;;5092155;28;20040;-54
2022/01/14 05:57:20;;;;;;;71.47;38.38;;;5.40;99.90;;;;;;5092227;28;20050;-52
2022/01/14 05:59:47;;;;;;;74.63;37.92;;;5.50;99.90;;;;;;5092189;28;20043;-53
2022/01/14 06:02:12;;;;;;;74.18;37.17;;;5.70;99.90;;;;;;5091928;28;20047;-54
2022/01/14 06:04:38;;;;;;;73.38;37.00;;;6.70;99.90;;;;;;5091972;28;20032;-54
2022/01/14 06:07:05;;;;;;;70.80;38.92;;;5.80;99.90;;;;;;5090644;28;20094;-53
2022/01/14 06:09:31;;;;;;;64.95;36.28;;;5.60;99.90;;;;;;5092283;28;20048;-53
2022/01/14 06:11:57;;;;;;;75.18;38.45;;;5.80;99.90;;;;;;5092093;28;20032;-52
2022/01/14 06:14:22;;;;;;;70.43;38.38;;;6.00;99.90;;;;;;5091772;28;20422;-53
2022/01/14 06:16:48;;;;;;;65.38;37.50;;;5.50;99.90;;;;;;5091741;28;20078;-53
2022/01/14 06:19:14;;;;;;;61.45;35.10;;;5.90;99.90;;;;;;5090293;28;20044;-52
2022/01/14 06:21:40;;;;;;;71.63;37.90;;;5.30;99.90;;;;;;5091599;28;20044;-54
2022/01/14 06:24:06;;;;;;;65.25;35.85;;;5.60;99.90;;;;;;5091530;28;20043;-54
2022/01/14 06:26:31;;;;;;;68.40;36.78;;;5.30;99.90;;;;;;5090049;28;20040;-54
2022/01/14 06:28:57;;;;;;;59.40;35.40;;;5.60;99.90;;;;;;5091843;28;20117;-52
2022/01/14 06:31:23;;;;;;;68.18;36.60;;;6.30;99.90;;;;;;5091462;28;20066;-54
2022/01/14 06:33:49;;;;;;;68.78;35.58;;;5.50;99.90;;;;;;5090782;28;20052;-53
2022/01/14 06:36:14;;;;;;;65.30;35.65;;;5.70;99.90;;;;;;5090890;28;20496;-53
2022/01/14 06:38:40;;;;;;;70.55;36.20;;;5.60;99.90;;;;;;5089374;28;20040;-53
2022/01/14 06:41:06;;;;;;;66.32;38.28;;;5.50;99.90;;;;;;5092181;28;20052;-53
2022/01/14 06:43:32;;;;;;;61.50;36.03;;;5.60;99.90;;;;;;5090496;28;20040;-53
2022/01/14 06:45:57;;;;;;;70.95;36.92;;;5.60;99.90;;;;;;5090453;28;20084;-53
2022/01/14 06:48:24;;;;;;;69.88;37.10;;;7.30;99.90;;;;;;5073836;28;20071;-54
2022/01/14 06:50:50;;;;;;;61.00;35.40;;;5.40;99.90;;;;;;5090106;28;20086;-53
2022/01/14 06:53:15;;;;;;;57.80;35.83;;;6.00;99.90;;;;;;5091883;28;20097;-52
2022/01/14 06:55:41;;;;;;;64.10;36.35;;;5.50;99.90;;;;;;5089987;28;20516;-53
2022/01/14 06:58:07;;;;;;;62.60;32.83;;;5.30;99.90;;;;;;5091435;28;20101;-53
2022/01/14 07:00:33;;;;;;;61.00;35.15;;;5.50;99.90;;;;;;5091282;28;20044;-52
2022/01/14 07:03:00;;;;;;;64.78;33.70;;;5.40;99.90;;;;;;5091332;28;20822;-53
2022/01/14 07:05:26;;;;;;;65.28;34.42;;;5.50;99.90;;;;;;5091554;28;20409;-53
2022/01/14 07:07:52;;;;;;;60.33;33.47;;;5.50;99.90;;;;;;5091429;28;20048;-53
2022/01/14 07:10:18;;;;;;;64.40;31.58;;;5.50;99.90;;;;;;5091337;28;20390;-52
2022/01/14 07:12:44;;;;;;;62.13;32.03;;;5.70;99.90;;;;;;5091170;28;20097;-53
2022/01/14 07:15:13;;;;;;;56.00;31.98;;;5.60;99.90;;;;;;5091234;28;20051;-52
2022/01/14 07:17:40;;;;;;;53.25;32.67;;;5.40;99.90;;;;;;5089592;28;20082;-53
2022/01/14 07:20:11;;;;;;;57.28;30.27;;;5.40;99.90;;;;;;5089959;28;20040;-52
2022/01/14 07:22:37;;;;;;;57.97;31.73;;;5.40;99.90;;;;;;5089979;28;20104;-53
2022/01/14 07:25:04;;;;;;;61.53;32.28;;;5.50;99.90;;;;;;5089718;28;20146;-53
2022/01/14 07:27:30;;;;;;;62.88;31.42;;;5.40;99.90;;;;;;5091387;28;20054;-53
2022/01/14 07:29:56;;;;;;;56.95;30.63;;;5.40;99.90;;;;;;5091127;28;20044;-53
2022/01/14 07:32:22;;;;;;;57.70;31.77;;;5.50;99.90;;;;;;5091397;28;20493;-53
2022/01/14 07:34:49;;;;;;;58.35;30.42;;;5.90;99.90;;;;;;5091167;28;20121;-53
2022/01/14 07:37:15;;;;;;;62.88;32.33;;;6.10;99.90;;;;;;5088573;28;20055;-55
2022/01/14 07:39:41;;;;;;;55.50;31.08;;;5.50;99.90;;;;;;5088094;28;20048;-52
2022/01/14 07:42:07;;;;;;;61.17;31.13;;;5.80;99.90;;;;;;5073107;28;20040;-54
2022/01/14 07:44:33;;;;;;;56.00;29.23;;;5.30;99.90;;;;;;5091106;28;20426;-54
2022/01/14 07:46:59;;;;;;;59.13;30.65;;;5.70;99.90;;;;;;5089531;28;20132;-53
2022/01/14 07:49:25;;;;;;;57.78;28.95;;;5.70;99.90;;;;;;5090774;28;20051;-54
2022/01/14 07:51:51;;;;;;;54.40;29.25;;;5.60;99.90;;;;;;5091140;28;20043;-53
2022/01/14 07:54:17;;;;;;;57.28;30.10;;;5.60;99.90;;;;;;5090898;28;20549;-53
2022/01/14 07:56:47;;;;;;;48.60;28.40;;;6.10;99.90;;;;;;5088890;28;20115;-52
2022/01/14 07:59:20;;;;;;;53.00;28.45;;;5.60;99.90;;;;;;5088986;28;20044;-53
2022/01/14 08:01:47;;;;;;;53.67;29.75;;;5.70;99.90;;;;;;5088971;28;20393;-52
2022/01/14 08:04:15;;;;;;;49.60;27.55;;;5.80;99.90;;;;;;5090480;28;20476;-52
2022/01/14 08:06:46;;;;;;;48.05;27.63;;;5.80;99.90;;;;;;5089986;28;20434;-52
2022/01/14 08:09:12;;;;;;;58.88;29.58;;;5.70;99.90;;;;;;5090271;28;20056;-51
2022/01/14 08:11:38;;;;;;;50.20;28.25;;;5.80;99.90;;;;;;5090569;28;20090;-54
2022/01/14 08:14:03;;;;;;;54.50;28.63;;;6.00;99.90;;;;;;5088756;28;20079;-53
2022/01/14 08:16:29;;;;;;;50.22;28.25;;;6.80;99.90;;;;;;5090247;28;20130;-53
2022/01/14 08:18:55;;;;;;;51.53;30.05;;;5.80;99.90;;;;;;5088443;28;20040;-53
2022/01/14 08:21:20;;;;;;;59.50;28.58;;;6.20;99.90;;;;;;5089897;28;20477;-51
2022/01/14 08:23:46;;;;;;;57.55;28.23;;;6.70;99.90;;;;;;5089832;28;20036;-52
2022/01/14 08:26:12;;;;;;;47.40;27.15;;;6.20;99.90;;;;;;5093074;28;20032;-54
2022/01/14 08:28:38;;;;;;;50.53;26.65;;;6.00;99.90;;;;;;5093006;28;20109;-53
2022/01/14 08:31:04;;;;;;;44.25;27.25;;;6.10;99.90;;;;;;5093569;28;20048;-51
2022/01/14 08:33:29;;;;;;;48.05;27.10;;;5.80;99.90;;;;;;5094055;28;20447;-52
2022/01/14 08:35:55;;;;;;;51.83;26.15;;;6.70;99.90;;;;;;5093924;28;20079;-53
2022/01/14 08:38:21;;;;;;;48.97;26.15;;;6.10;99.90;;;;;;5091701;28;20424;-52
2022/01/14 08:40:47;;;;;;;48.88;25.20;;;6.30;99.90;;;;;;5092565;28;20086;-51
2022/01/14 08:43:13;;;;;;;50.80;25.92;;;6.20;99.90;;;;;;5092279;28;20050;-49
2022/01/14 08:45:39;;;;;;;53.72;26.63;;;6.00;99.90;;;;;;5093558;28;20036;-53
2022/01/14 08:48:05;;;;;;;50.35;25.83;;;6.00;99.90;;;;;;5093379;28;20439;-53
2022/01/14 08:50:36;;;;;;;47.53;23.92;;;5.80;99.90;;;;;;5093587;28;20119;-51
2022/01/14 08:53:04;;;;;;;46.85;23.77;;;6.10;99.90;;;;;;5093356;28;20044;-52
2022/01/14 08:55:30;;;;;;;51.17;24.00;;;6.60;99.90;;;;;;5093582;28;20086;-53
2022/01/14 08:57:57;;;;;;;45.10;23.67;;;6.10;99.90;;;;;;5093511;28;20048;-53
2022/01/14 09:00:25;;;;;;;49.03;25.23;;;7.20;99.90;;;;;;5092263;28;20046;-52
2022/01/14 09:02:54;;;;;;;42.92;23.90;;;7.00;99.90;;;;;;5093317;28;20071;-53
2022/01/14 09:05:21;;;;;;;50.40;23.70;;;6.00;99.90;;;;;;5092012;28;20062;-52
2022/01/14 09:07:47;;;;;;;45.38;22.10;;;6.10;99.90;;;;;;5092109;28;20052;-53
2022/01/14 09:10:14;;;;;;;42.03;22.05;;;6.70;99.90;;;;;;5092808;28;20431;-51
2022/01/14 09:12:40;;;;;;;41.85;20.95;;;6.20;99.90;;;;;;5092007;28;20055;-51
2022/01/14 09:15:07;;;;;;;42.45;21.85;;;6.60;99.90;;;;;;5091708;28;20100;-52
2022/01/14 09:17:33;;;;;;;45.85;21.73;;;6.30;99.90;;;;;;5092919;28;20044;-52
2022/01/14 09:19:58;;;;;;;43.78;21.92;;;6.80;99.90;;;;;;5092853;28;20119;-51
2022/01/14 09:22:27;;;;;;;43.38;21.30;;;7.20;99.90;;;;;;5091471;28;20052;-52
2022/01/14 09:24:56;;;;;;;35.38;20.48;;;7.40;99.90;;;;;;5092619;28;20515;-51
2022/01/14 09:27:22;;;;;;;38.95;20.08;;;7.00;99.90;;;;;;5091744;28;20097;-53
2022/01/14 09:29:48;;;;;;;45.30;21.63;;;7.70;99.90;;;;;;5092860;28;20510;-50
2022/01/14 09:32:14;;;;;;;37.10;18.30;;;6.70;99.90;;;;;;5091292;28;20052;-53
2022/01/14 09:34:39;;;;;;;33.95;16.17;;;6.90;99.90;;;;;;5093047;28;20047;-53
2022/01/14 09:37:05;;;;;;;37.00;18.27;;;6.70;99.90;;;;;;5090116;28;20493;-53
2022/01/14 09:39:32;;;;;;;35.20;18.08;;;7.00;99.90;;;;;;5090680;28;20090;-53
2022/01/14 09:41:59;;;;;;;33.67;16.98;;;7.20;99.90;;;;;;5092634;28;20048;-51
2022/01/14 09:44:24;;;;;;;33.28;18.90;;;6.70;99.90;;;;;;5091475;28;20490;-53
2022/01/14 09:46:51;;;;;;;38.22;16.40;;;6.70;99.90;;;;;;5091314;28;20040;-54
2022/01/14 09:49:17;;;;;;;35.67;17.85;;;7.20;99.90;;;;;;5092524;28;20047;-51
2022/01/14 09:51:43;;;;;;;34.60;17.45;;;7.30;99.90;;;;;;5090979;28;20516;-53
2022/01/14 09:54:10;;;;;;;32.25;16.17;;;7.00;99.90;;;;;;5091000;28;20123;-51
2022/01/14 09:56:37;;;;;;;25.67;15.68;;;7.20;99.90;;;;;;5091402;28;20052;-53
2022/01/14 09:59:04;;;;;;;28.80;13.77;;;7.00;99.90;;;;;;5092045;28;20812;-51
2022/01/14 10:01:40;;;;;;;26.63;14.80;;;7.10;99.90;;;;;;5091037;28;20047;-51
2022/01/14 10:04:17;;;;;;;27.48;13.65;;;6.90;99.90;;;;;;5092739;28;20135;-52
2022/01/14 10:06:47;;;;;;;27.83;14.43;;;7.00;99.90;;;;;;5073809;28;20048;-53
2022/01/14 10:09:12;;;;;;;25.63;13.13;;;7.30;99.90;;;;;;5092242;28;20047;-53
2022/01/14 10:11:42;;;;;;;24.48;12.38;;;7.50;99.90;;;;;;5091977;28;20047;-52
2022/01/14 10:14:20;;;;;;;23.80;11.27;;;7.20;99.90;;;;;;5091718;28;20490;-52
2022/01/14 10:16:54;;;;;;;32.47;12.65;;;7.10;99.90;;;;;;5091971;28;20540;-52
2022/01/14 10:19:22;;;;;;;21.55;10.40;;;7.60;99.90;;;;;;5091979;28;20440;-52
2022/01/14 10:21:48;;;;;;;26.90;11.52;;;7.60;99.90;;;;;;5091826;28;20054;-51
2022/01/14 10:24:14;;;;;;;28.67;11.57;;;7.40;99.90;;;;;;5091674;28;20066;-51
2022/01/14 10:26:56;;;;;;;29.17;11.32;;;7.50;99.90;;;;;;5090712;28;20047;-53
2022/01/14 10:29:39;;;;;;;19.23;9.40;;;7.40;99.90;;;;;;5091402;28;20048;-52
2022/01/14 10:32:07;;;;;;;21.02;9.93;;;7.80;99.90;;;;;;5090097;28;20044;-52
2022/01/14 10:34:34;;;;;;;25.60;9.65;;;7.40;99.90;;;;;;5091892;28;20098;-52
2022/01/14 10:37:15;;;;;;;21.35;10.25;;;7.60;99.90;;;;;;5090641;28;20036;-52
2022/01/14 10:39:52;;;;;;;26.55;9.13;;;7.30;99.90;;;;;;5089604;28;20367;-53
2022/01/14 10:42:23;;;;;;;24.20;9.15;;;7.80;99.90;;;;;;5089814;28;20140;-53
2022/01/14 10:44:49;;;;;;;23.15;9.20;;;8.30;99.90;;;;;;5090570;28;20058;-53
2022/01/14 10:47:17;;;;;;;28.63;10.75;;;8.30;99.90;;;;;;5089602;28;20048;-52
2022/01/14 10:49:46;;;;;;;19.60;9.45;;;7.70;99.90;;;;;;5091621;28;20044;-52
2022/01/14 10:52:19;;;;;;;23.45;8.63;;;7.90;99.90;;;;;;5089911;28;20051;-50
2022/01/14 10:54:51;;;;;;;23.33;8.75;;;7.50;99.90;;;;;;5092044;28;20090;-53
2022/01/14 10:57:18;;;;;;;23.70;9.10;;;7.90;99.90;;;;;;5091278;28;20550;-53
2022/01/14 10:59:46;;;;;;;27.52;8.70;;;7.30;99.90;;;;;;5091564;28;20093;-51
2022/01/14 11:02:31;;;;;;;20.48;8.77;;;7.90;99.90;;;;;;5089643;28;20040;-53
2022/01/14 11:05:19;;;;;;;23.13;7.68;;;8.10;99.90;;;;;;5089793;28;20132;-53
2022/01/14 11:07:47;;;;;;;20.80;8.18;;;7.10;99.90;;;;;;5091601;28;20066;-52
2022/01/14 11:10:15;;;;;;;26.90;10.52;;;7.50;99.90;;;;;;5091020;28;20047;-52
2022/01/14 11:12:42;;;;;;;24.30;8.93;;;7.30;99.90;;;;;;5089812;28;20048;-50
2022/01/14 11:15:09;;;;;;;21.00;8.23;;;8.40;99.90;;;;;;5089782;28;20041;-52
2022/01/14 11:17:40;;;;;;;22.02;8.82;;;7.30;99.90;;;;;;5089978;28;20097;-52
2022/01/14 11:20:08;;;;;;;19.30;7.43;;;7.80;99.90;;;;;;5091254;28;20489;-53
2022/01/14 11:25:19;;;;;;;21.63;8.15;;;8.30;99.90;;;;;;5091077;28;20423;-53
2022/01/14 11:27:55;;;;;;;22.05;6.95;;;8.00;99.90;;;;;;5091243;28;20048;-51
2022/01/14 11:30:30;;;;;;;21.00;7.97;;;7.40;99.90;;;;;;5090916;28;20109;-52
2022/01/14 11:32:59;;;;;;;27.98;9.60;;;7.30;99.90;;;;;;5089894;28;20131;-52
2022/01/14 11:35:26;;;;;;;26.90;9.65;;;7.60;99.90;;;;;;5090829;28;20052;-52
2022/01/14 11:37:52;;;;;;;21.02;7.53;;;7.80;99.90;;;;;;5087791;28;20053;-53
2022/01/14 11:40:19;;;;;;;20.20;7.63;;;7.90;99.90;;;;;;5090478;28;20126;-51
2022/01/14 11:42:59;;;;;;;25.52;7.53;;;8.00;99.90;;;;;;5091194;28;20500;-53
2022/01/14 11:45:46;;;;;;;25.05;7.43;;;7.40;99.90;;;;;;5090948;28;20048;-53
2022/01/14 11:48:37;;;;;;;21.55;8.73;;;7.40;99.90;;;;;;5089546;28;20138;-53
2022/01/14 11:51:05;;;;;;;25.52;6.90;;;7.30;99.90;;;;;;5090922;28;20044;-52
2022/01/14 11:53:32;;;;;;;19.52;7.20;;;7.30;99.90;;;;;;5089480;28;20044;-51
2022/01/14 11:55:59;;;;;;;19.38;6.22;;;7.70;99.90;;;;;;5090908;28;20075;-49
2022/01/14 11:58:24;;;;;;;19.20;6.10;;;7.40;99.90;;;;;;5090761;28;20052;-53
2022/01/14 12:00:50;;;;;;;19.08;5.82;;;8.20;99.90;;;;;;5092073;28;20093;-53
2022/01/14 12:03:25;;;;;;;19.85;5.68;;;7.80;99.90;;;;;;5094992;28;20036;-53
2022/01/14 12:06:07;;;;;;;17.95;5.22;;;7.40;99.90;;;;;;5095026;28;20054;-54
2022/01/14 12:08:34;;;;;;;17.52;5.05;;;7.40;99.90;;;;;;5093478;28;20126;-52
2022/01/14 12:11:09;;;;;;;17.17;4.80;;;7.40;99.90;;;;;;5094973;28;20040;-49
2022/01/14 12:13:50;;;;;;;17.77;5.63;;;7.30;99.90;;;;;;5094610;28;20390;-52
2022/01/14 12:18:59;;;;;;;14.77;5.22;;;7.50;99.90;;;;;;5094639;28;20109;-53
2022/01/14 12:21:50;;;;;;;23.67;5.88;;;8.00;99.90;;;;;;5094863;28;20424;-53
2022/01/14 12:24:18;;;;;;;19.42;5.20;;;7.50;99.90;;;;;;5094346;28;20044;-53
2022/01/14 12:27:07;;;;;;;23.80;5.43;;;7.50;99.90;;;;;;5094967;28;20440;-53
2022/01/14 12:29:33;;;;;;;27.65;6.43;;;7.90;99.90;;;;;;5093042;28;20052;-53
2022/01/14 12:32:08;;;;;;;18.52;5.55;;;7.80;99.90;;;;;;5093344;28;20094;-51
2022/01/14 12:34:39;;;;;;;28.70;6.03;;;7.70;99.90;;;;;;5094529;28;20051;-54
2022/01/14 12:37:06;;;;;;;19.40;5.28;;;8.20;99.90;;;;;;5093358;28;20044;-53
2022/01/14 12:39:32;;;;;;;20.65;5.65;;;8.00;99.90;;;;;;5091590;28;20527;-53
2022/01/14 12:41:59;;;;;;;29.85;5.70;;;7.40;99.90;;;;;;5093166;28;20071;-53
2022/01/14 12:44:26;;;;;;;21.08;6.15;;;7.90;99.90;;;;;;5094124;28;20057;-52
2022/01/14 12:47:05;;;;;;;22.05;5.60;;;8.40;99.90;;;;;;5092988;28;20050;-52
2022/01/14 12:49:34;;;;;;;27.83;11.00;;;7.30;99.90;;;;;;5092697;28;20097;-53
2022/01/14 12:52:22;;;;;;;22.73;9.60;;;7.30;99.90;;;;;;5094286;28;20370;-53
2022/01/14 12:54:47;;;;;;;20.98;7.28;;;7.30;99.90;;;;;;5092295;28;20058;-53
2022/01/14 12:57:15;;;;;;;27.27;5.88;;;7.30;99.90;;;;;;5093939;28;20040;-52
2022/01/14 12:59:51;;;;;;;21.63;5.40;;;8.10;99.90;;;;;;5092125;28;20062;-52
2022/01/14 13:02:22;;;;;;;19.38;5.70;;;7.30;99.90;;;;;;5094216;28;20039;-53
2022/01/14 13:05:06;;;;;;;23.92;6.53;;;8.00;99.90;;;;;;5092438;28;20044;-52
2022/01/14 13:07:33;;;;;;;18.40;5.85;;;7.20;99.90;;;;;;5093257;28;20044;-51
2022/01/14 13:09:59;;;;;;;17.80;5.90;;;7.60;99.90;;;;;;5093641;28;20478;-53
2022/01/14 13:12:34;;;;;;;24.33;6.68;;;7.70;99.90;;;;;;5093557;28;20501;-52
2022/01/14 13:15:02;;;;;;;21.58;6.47;;;7.80;99.90;;;;;;5093687;28;20035;-52